createdAt,value
2023-04-30T00:00:27.315Z,12.49
2023-04-30T00:02:55.377Z,12.38
2023-04-30T00:05:24.388Z,12.41
2023-04-30T00:07:51.854Z,12.43
2023-04-30T00:10:19.368Z,12.48
2023-04-30T00:12:46.830Z,12.42
2023-04-30T00:15:14.330Z,12.35
2023-04-30T00:17:41.862Z,12.43
2023-04-30T00:20:10.031Z,12.51
2023-04-30T00:22:38.988Z,12.45
2023-04-30T00:25:06.789Z,12.42
2023-04-30T00:27:34.227Z,12.32
2023-04-30T00:30:01.688Z,12.30
2023-04-30T00:32:29.215Z,12.34
2023-04-30T00:34:56.654Z,12.31
2023-04-30T00:37:24.095Z,12.36
2023-04-30T00:39:53.143Z,12.28
2023-04-30T00:42:20.726Z,12.21
2023-04-30T00:44:48.189Z,12.30
2023-04-30T00:47:15.697Z,12.33
2023-04-30T00:49:43.154Z,12.34
2023-04-30T00:52:10.614Z,12.39
2023-04-30T00:54:38.380Z,12.40
2023-04-30T00:57:08.723Z,12.29
2023-04-30T00:59:36.340Z,12.27
2023-04-30T01:02:04.163Z,12.25
2023-04-30T01:04:33.042Z,12.20
2023-04-30T01:07:02.065Z,12.22
2023-04-30T01:09:29.853Z,12.18
2023-04-30T01:12:03.362Z,12.12
2023-04-30T01:14:35.307Z,12.10
2023-04-30T01:17:06.939Z,12.08
2023-04-30T01:19:39.407Z,12.08
2023-04-30T01:22:10.951Z,12.02
2023-04-30T01:25:06.216Z,12.01
2023-04-30T01:27:57.820Z,11.91
2023-04-30T01:30:26.350Z,11.84
2023-04-30T01:32:53.909Z,11.77
2023-04-30T01:35:21.554Z,11.69
2023-04-30T01:37:55.903Z,11.66
2023-04-30T01:40:25.654Z,11.55
2023-04-30T01:43:02.999Z,11.48
2023-04-30T01:45:42.528Z,11.65
2023-04-30T01:48:20.401Z,11.51
2023-04-30T01:50:49.837Z,11.52
2023-04-30T01:53:19.872Z,11.51
2023-04-30T01:55:51.895Z,11.50
2023-04-30T01:58:21.610Z,11.53
2023-04-30T02:00:49.089Z,11.45
2023-04-30T02:03:16.560Z,11.43
2023-04-30T02:05:44.058Z,11.33
2023-04-30T02:08:11.531Z,11.28
2023-04-30T02:10:38.984Z,11.33
2023-04-30T02:13:06.484Z,11.25
2023-04-30T02:15:35.309Z,11.21
2023-04-30T02:18:02.820Z,11.18
2023-04-30T02:20:30.400Z,11.08
2023-04-30T02:22:57.888Z,11.07
2023-04-30T02:25:26.263Z,11.10
2023-04-30T02:27:53.772Z,11.02
2023-04-30T02:30:21.237Z,10.98
2023-04-30T02:32:50.087Z,10.95
2023-04-30T02:35:17.582Z,10.86
2023-04-30T02:37:45.005Z,10.77
2023-04-30T02:40:13.194Z,10.81
2023-04-30T02:42:40.665Z,10.74
2023-04-30T02:45:09.013Z,10.73
2023-04-30T02:47:36.629Z,10.78
2023-04-30T02:50:06.368Z,10.75
2023-04-30T02:52:33.853Z,10.67
2023-04-30T02:55:01.266Z,10.70
2023-04-30T02:57:28.684Z,10.60
2023-04-30T02:59:56.531Z,10.64
2023-04-30T03:02:24.393Z,10.63
2023-04-30T03:04:51.864Z,10.58
2023-04-30T03:07:20.684Z,10.52
2023-04-30T03:09:48.188Z,10.43
2023-04-30T03:12:15.707Z,10.45
2023-04-30T03:14:43.179Z,10.50
2023-04-30T03:17:10.641Z,10.51
2023-04-30T03:19:38.185Z,10.52
2023-04-30T03:22:05.640Z,10.51
2023-04-30T03:24:34.419Z,10.50
2023-04-30T03:27:01.928Z,10.52
2023-04-30T03:29:29.366Z,10.49
2023-04-30T03:31:57.329Z,10.47
2023-04-30T03:34:24.855Z,10.55
2023-04-30T03:36:52.279Z,10.33
2023-04-30T03:39:19.737Z,10.42
2023-04-30T03:41:48.507Z,10.49
2023-04-30T03:44:16.300Z,10.48
2023-04-30T03:46:44.127Z,10.59
2023-04-30T03:49:11.909Z,10.44
2023-04-30T03:51:41.665Z,10.50
2023-04-30T03:54:09.275Z,10.56
2023-04-30T03:56:37.321Z,10.52
2023-04-30T03:59:06.391Z,10.49
2023-04-30T04:01:33.957Z,10.52
2023-04-30T04:04:02.651Z,10.52
2023-04-30T04:06:30.466Z,10.51
2023-04-30T04:08:57.964Z,10.43
2023-04-30T04:11:25.612Z,10.46
2023-04-30T04:13:53.095Z,10.44
2023-04-30T04:16:22.175Z,10.37
2023-04-30T04:18:49.748Z,10.39
2023-04-30T04:21:17.641Z,10.34
2023-04-30T04:23:45.061Z,10.38
2023-04-30T04:26:12.600Z,10.24
2023-04-30T04:28:40.110Z,10.35
2023-04-30T04:31:07.827Z,10.38
2023-04-30T04:33:37.036Z,10.35
2023-04-30T04:36:05.153Z,10.41
2023-04-30T04:38:32.574Z,10.41
2023-04-30T04:41:00.023Z,10.39
2023-04-30T04:43:27.532Z,10.43
2023-04-30T04:45:55.053Z,10.35
2023-04-30T04:48:22.512Z,10.40
2023-04-30T04:50:51.568Z,10.38
2023-04-30T04:53:19.027Z,10.29
2023-04-30T04:55:46.449Z,10.27
2023-04-30T04:58:13.888Z,10.31
2023-04-30T05:00:41.325Z,10.35
2023-04-30T05:03:09.351Z,10.30
2023-04-30T05:05:36.921Z,10.30
2023-04-30T05:08:06.128Z,10.28
2023-04-30T05:10:34.781Z,10.22
2023-04-30T05:13:02.294Z,10.16
2023-04-30T05:15:29.777Z,10.16
2023-04-30T05:17:57.243Z,10.17
2023-04-30T05:20:24.736Z,10.20
2023-04-30T05:22:52.206Z,10.21
2023-04-30T05:25:21.046Z,10.19
2023-04-30T05:27:48.480Z,10.19
2023-04-30T05:30:16.506Z,10.20
2023-04-30T05:32:50.525Z,10.23
2023-04-30T05:35:18.158Z,10.25
2023-04-30T05:37:45.648Z,10.24
2023-04-30T05:40:14.929Z,10.22
2023-04-30T05:42:44.436Z,10.24
2023-04-30T05:45:15.856Z,10.28
2023-04-30T05:47:43.404Z,10.29
2023-04-30T05:50:11.186Z,10.30
2023-04-30T05:52:38.624Z,10.34
2023-04-30T05:55:07.035Z,10.40
2023-04-30T05:57:35.200Z,10.41
2023-04-30T06:00:06.498Z,10.46
2023-04-30T06:02:34.109Z,10.51
2023-04-30T06:05:03.302Z,10.51
2023-04-30T06:07:30.913Z,10.56
2023-04-30T06:09:58.716Z,10.56
2023-04-30T06:12:26.392Z,10.60
2023-04-30T06:14:53.890Z,10.67
2023-04-30T06:17:22.728Z,10.71
2023-04-30T06:19:50.215Z,10.73
2023-04-30T06:22:17.670Z,10.78
2023-04-30T06:24:45.439Z,10.81
2023-04-30T06:27:12.896Z,10.85
2023-04-30T06:29:40.418Z,10.92
2023-04-30T06:32:08.633Z,10.91
2023-04-30T06:34:37.717Z,10.95
2023-04-30T06:37:05.637Z,10.99
2023-04-30T06:39:33.062Z,11.06
2023-04-30T06:42:01.002Z,11.11
2023-04-30T06:44:28.467Z,11.21
2023-04-30T06:46:56.302Z,11.28
2023-04-30T06:49:23.864Z,11.28
2023-04-30T06:51:52.751Z,11.36
2023-04-30T06:54:22.697Z,11.40
2023-04-30T06:56:50.399Z,11.43
2023-04-30T06:59:17.865Z,11.45
2023-04-30T07:01:45.318Z,11.50
2023-04-30T07:04:13.121Z,11.57
2023-04-30T07:06:40.635Z,11.60
2023-04-30T07:09:09.557Z,11.69
2023-04-30T07:11:37.005Z,11.80
2023-04-30T07:14:06.901Z,11.87
2023-04-30T07:16:35.505Z,11.97
2023-04-30T07:19:03.377Z,11.96
2023-04-30T07:21:32.653Z,12.11
2023-04-30T07:24:00.302Z,12.14
2023-04-30T07:26:29.277Z,12.20
2023-04-30T07:28:56.780Z,12.17
2023-04-30T07:31:24.601Z,12.18
2023-04-30T07:33:52.219Z,12.27
2023-04-30T07:36:19.704Z,12.39
2023-04-30T07:38:47.167Z,12.39
2023-04-30T07:41:14.727Z,12.45
2023-04-30T07:43:43.505Z,12.52
2023-04-30T07:46:11.006Z,12.65
2023-04-30T07:48:39.026Z,12.72
2023-04-30T07:51:06.597Z,12.73
2023-04-30T07:53:34.075Z,12.89
2023-04-30T07:56:01.533Z,12.98
2023-04-30T07:58:28.977Z,13.01
2023-04-30T08:00:57.831Z,13.00
2023-04-30T08:03:25.465Z,13.08
2023-04-30T08:05:53.189Z,13.10
2023-04-30T08:08:20.848Z,13.13
2023-04-30T08:10:48.339Z,13.21
2023-04-30T08:13:16.101Z,13.25
2023-04-30T08:15:43.716Z,13.26
2023-04-30T08:18:12.584Z,13.33
2023-04-30T08:20:40.405Z,13.40
2023-04-30T08:23:07.978Z,13.63
2023-04-30T08:25:36.027Z,13.74
2023-04-30T08:28:03.517Z,13.78
2023-04-30T08:30:30.971Z,13.82
2023-04-30T08:32:58.498Z,13.95
2023-04-30T08:35:29.644Z,13.92
2023-04-30T08:37:57.178Z,13.91
2023-04-30T08:40:43.509Z,13.86
2023-04-30T08:43:13.470Z,13.97
2023-04-30T08:45:41.608Z,14.07
2023-04-30T08:48:12.316Z,14.13
2023-04-30T08:50:41.262Z,14.22
2023-04-30T08:53:09.253Z,14.37
2023-04-30T08:55:37.599Z,14.41
2023-04-30T08:58:05.710Z,14.41
2023-04-30T09:00:33.985Z,14.40
2023-04-30T09:03:02.330Z,14.45
2023-04-30T09:05:30.972Z,14.49
2023-04-30T09:08:03.631Z,14.57
2023-04-30T09:10:33.697Z,14.58
2023-04-30T09:13:01.790Z,14.73
2023-04-30T09:15:29.621Z,14.85
2023-04-30T09:18:08.143Z,14.85
2023-04-30T09:20:35.800Z,14.79
2023-04-30T09:23:08.814Z,14.83
2023-04-30T09:25:40.775Z,14.95
2023-04-30T09:28:10.079Z,15.02
2023-04-30T09:30:37.887Z,15.18
2023-04-30T09:33:05.703Z,15.22
2023-04-30T09:35:34.883Z,15.41
2023-04-30T09:38:03.163Z,15.35
2023-04-30T09:40:41.284Z,15.39
2023-04-30T09:43:09.158Z,15.42
2023-04-30T09:45:44.543Z,15.47
2023-04-30T09:48:17.132Z,15.57
2023-04-30T09:50:47.178Z,15.61
2023-04-30T09:53:17.742Z,15.70
2023-04-30T09:55:48.347Z,15.81
2023-04-30T09:58:17.609Z,15.73
2023-04-30T10:00:46.842Z,15.80
2023-04-30T10:03:15.671Z,15.87
2023-04-30T10:05:46.814Z,15.91
2023-04-30T10:08:19.108Z,16.01
2023-04-30T10:10:51.985Z,16.04
2023-04-30T10:13:21.394Z,16.08
2023-04-30T10:15:51.368Z,16.12
2023-04-30T10:18:20.717Z,16.13
2023-04-30T10:20:49.870Z,16.18
2023-04-30T10:23:18.487Z,16.21
2023-04-30T10:25:48.389Z,16.17
2023-04-30T10:28:16.681Z,16.31
2023-04-30T10:30:46.152Z,16.36
2023-04-30T10:33:18.580Z,16.34
2023-04-30T10:35:48.761Z,16.38
2023-04-30T10:38:23.046Z,16.37
2023-04-30T10:40:52.005Z,16.55
2023-04-30T10:43:21.992Z,16.43
2023-04-30T10:45:49.724Z,16.36
2023-04-30T10:48:24.322Z,16.50
2023-04-30T10:50:52.629Z,16.54
2023-04-30T10:53:22.773Z,16.68
2023-04-30T10:55:55.700Z,16.81
2023-04-30T10:58:27.548Z,16.88
2023-04-30T11:01:02.772Z,16.93
2023-04-30T11:03:31.272Z,16.82
2023-04-30T11:05:59.996Z,16.98
2023-04-30T11:08:35.172Z,17.08
2023-04-30T11:11:05.192Z,17.16
2023-04-30T11:13:42.966Z,17.13
2023-04-30T11:16:10.828Z,17.13
2023-04-30T11:18:43.450Z,17.12
2023-04-30T11:21:11.674Z,17.12
2023-04-30T11:23:42.936Z,17.11
2023-04-30T11:26:12.047Z,17.18
2023-04-30T11:28:39.590Z,17.18
2023-04-30T11:31:07.227Z,17.19
2023-04-30T11:33:35.486Z,17.23
2023-04-30T11:36:03.613Z,17.32
2023-04-30T11:38:32.283Z,17.25
2023-04-30T11:41:00.441Z,17.36
2023-04-30T11:43:30.930Z,17.42
2023-04-30T11:46:02.873Z,17.42
2023-04-30T11:48:34.551Z,17.56
2023-04-30T11:51:04.829Z,17.61
2023-04-30T11:53:32.911Z,17.73
2023-04-30T11:56:03.913Z,17.66
2023-04-30T11:58:37.913Z,17.71
2023-04-30T12:01:06.335Z,17.66
2023-04-30T12:03:33.934Z,17.59
2023-04-30T12:06:02.313Z,17.79
2023-04-30T12:08:29.938Z,17.82
2023-04-30T12:10:57.405Z,17.99
2023-04-30T12:13:24.842Z,17.96
2023-04-30T12:16:00.274Z,17.85
2023-04-30T12:18:28.004Z,18.03
2023-04-30T12:20:55.618Z,18.32
2023-04-30T12:23:23.206Z,18.11
2023-04-30T12:25:50.750Z,18.05
2023-04-30T12:28:18.204Z,17.96
2023-04-30T12:30:46.776Z,18.09
2023-04-30T12:33:18.901Z,18.07
2023-04-30T12:35:46.566Z,18.04
2023-04-30T12:38:17.806Z,18.11
2023-04-30T12:40:48.574Z,18.34
2023-04-30T12:43:17.633Z,18.55
2023-04-30T12:45:46.980Z,18.54
2023-04-30T12:48:17.043Z,18.39
2023-04-30T12:50:48.774Z,18.32
2023-04-30T12:53:16.269Z,18.49
2023-04-30T12:55:43.705Z,18.59
2023-04-30T12:58:12.258Z,18.55
2023-04-30T13:00:47.000Z,18.56
2023-04-30T13:03:17.547Z,18.55
2023-04-30T13:05:48.245Z,18.49
2023-04-30T13:08:16.045Z,18.66
2023-04-30T13:10:43.711Z,18.52
2023-04-30T13:13:11.479Z,18.67
2023-04-30T13:15:38.985Z,18.75
2023-04-30T13:18:08.750Z,18.82
2023-04-30T13:20:38.008Z,18.94
2023-04-30T13:23:05.501Z,19.08
2023-04-30T13:25:33.427Z,19.06
2023-04-30T13:28:00.988Z,19.25
2023-04-30T13:30:28.552Z,19.31
2023-04-30T13:32:56.282Z,19.26
2023-04-30T13:35:24.028Z,19.37
2023-04-30T13:37:53.559Z,19.36
2023-04-30T13:40:21.806Z,19.28
2023-04-30T13:42:49.897Z,19.31
2023-04-30T13:45:17.454Z,19.30
2023-04-30T13:47:45.210Z,19.33
2023-04-30T13:50:12.884Z,19.28
2023-04-30T13:52:40.462Z,19.18
2023-04-30T13:55:10.532Z,19.27
2023-04-30T13:57:38.421Z,19.34
2023-04-30T14:00:08.000Z,19.43
2023-04-30T14:02:35.654Z,19.39
2023-04-30T14:05:06.593Z,19.30
2023-04-30T14:07:34.976Z,19.41
2023-04-30T14:10:02.437Z,19.51
2023-04-30T14:12:31.430Z,19.52
2023-04-30T14:14:59.220Z,19.75
2023-04-30T14:17:28.234Z,19.84
2023-04-30T14:19:55.886Z,19.83
2023-04-30T14:22:24.426Z,19.82
2023-04-30T14:24:53.015Z,19.64
2023-04-30T14:27:21.153Z,19.52
2023-04-30T14:29:49.962Z,19.48
2023-04-30T14:32:17.467Z,19.45
2023-04-30T14:34:44.926Z,19.41
2023-04-30T14:37:12.441Z,19.39
2023-04-30T14:39:39.868Z,19.37
2023-04-30T14:42:07.307Z,19.43
2023-04-30T14:44:34.785Z,19.48
2023-04-30T14:47:04.049Z,19.43
2023-04-30T14:49:31.642Z,19.40
2023-04-30T14:51:59.113Z,19.41
2023-04-30T14:54:26.629Z,19.34
2023-04-30T14:56:54.132Z,19.23
2023-04-30T14:59:21.683Z,19.19
2023-04-30T15:01:49.314Z,19.15
2023-04-30T15:04:18.179Z,19.18
2023-04-30T15:06:45.752Z,19.17
2023-04-30T15:09:13.719Z,19.11
2023-04-30T15:11:41.223Z,19.22
2023-04-30T15:14:08.682Z,19.37
2023-04-30T15:16:36.493Z,19.52
2023-04-30T15:19:03.995Z,19.79
2023-04-30T15:21:32.833Z,19.88
2023-04-30T15:24:00.324Z,19.83
2023-04-30T15:26:29.142Z,19.81
2023-04-30T15:28:57.190Z,19.77
2023-04-30T15:31:25.169Z,19.74
2023-04-30T15:33:52.695Z,19.70
2023-04-30T15:36:22.193Z,19.69
2023-04-30T15:38:50.998Z,19.57
2023-04-30T15:41:18.425Z,19.49
2023-04-30T15:43:45.959Z,19.44
2023-04-30T15:46:13.534Z,19.36
2023-04-30T15:48:41.087Z,19.33
2023-04-30T15:51:08.817Z,19.35
2023-04-30T15:53:36.370Z,19.27
2023-04-30T15:56:05.673Z,19.30
2023-04-30T15:58:33.148Z,19.32
2023-04-30T16:01:01.227Z,19.32
2023-04-30T16:03:28.769Z,19.26
2023-04-30T16:05:56.337Z,19.13
2023-04-30T16:08:23.844Z,19.28
2023-04-30T16:10:51.379Z,19.29
2023-04-30T16:13:20.190Z,19.24
2023-04-30T16:15:47.634Z,19.20
2023-04-30T16:18:15.081Z,19.23
2023-04-30T16:20:42.852Z,19.29
2023-04-30T16:23:10.333Z,19.30
2023-04-30T16:25:37.778Z,19.38
2023-04-30T16:28:05.561Z,19.42
2023-04-30T16:30:35.294Z,19.35
2023-04-30T16:33:02.995Z,19.23
2023-04-30T16:35:31.158Z,19.18
2023-04-30T16:37:58.696Z,19.15
2023-04-30T16:40:26.184Z,19.17
2023-04-30T16:42:53.666Z,19.21
2023-04-30T16:45:21.276Z,19.08
2023-04-30T16:47:50.126Z,18.96
2023-04-30T16:50:18.343Z,18.98
2023-04-30T16:52:45.880Z,18.91
2023-04-30T16:55:13.329Z,18.90
2023-04-30T16:57:41.163Z,18.85
2023-04-30T17:00:11.322Z,18.86
2023-04-30T17:02:40.782Z,18.75
2023-04-30T17:05:10.756Z,18.73
2023-04-30T17:07:38.244Z,18.72
2023-04-30T17:10:07.428Z,18.68
2023-04-30T17:12:34.847Z,18.71
2023-04-30T17:15:02.307Z,18.78
2023-04-30T17:17:30.065Z,18.77
2023-04-30T17:19:57.821Z,18.78
2023-04-30T17:22:26.902Z,18.76
2023-04-30T17:24:54.350Z,18.77
2023-04-30T17:27:21.821Z,18.84
2023-04-30T17:29:50.747Z,18.79
2023-04-30T17:32:18.782Z,18.68
2023-04-30T17:34:46.904Z,18.69
2023-04-30T17:37:14.388Z,18.78
2023-04-30T17:39:43.170Z,18.66
2023-04-30T17:42:10.940Z,18.60
2023-04-30T17:44:38.462Z,18.49
2023-04-30T17:47:06.253Z,18.49
2023-04-30T17:49:33.774Z,18.45
2023-04-30T17:52:01.363Z,18.41
2023-04-30T17:54:30.045Z,18.36
2023-04-30T17:56:59.509Z,18.17
2023-04-30T17:59:28.764Z,18.20
2023-04-30T18:01:56.284Z,18.20
2023-04-30T18:04:23.836Z,18.13
2023-04-30T18:06:51.344Z,18.16
2023-04-30T18:09:19.417Z,18.05
2023-04-30T18:11:46.865Z,18.04
2023-04-30T18:14:15.685Z,17.95
2023-04-30T18:16:43.241Z,17.93
2023-04-30T18:19:10.772Z,17.87
2023-04-30T18:21:38.293Z,17.82
2023-04-30T18:24:06.269Z,17.81
2023-04-30T18:26:33.687Z,17.73
2023-04-30T18:29:01.139Z,17.66
2023-04-30T18:31:30.523Z,17.52
2023-04-30T18:33:58.097Z,17.53
2023-04-30T18:36:25.684Z,17.46
2023-04-30T18:38:53.134Z,17.39
2023-04-30T18:41:21.020Z,17.39
2023-04-30T18:43:48.907Z,17.38
2023-04-30T18:46:16.621Z,17.28
2023-04-30T18:48:45.522Z,17.21
2023-04-30T18:51:13.020Z,17.14
2023-04-30T18:53:41.901Z,17.08
2023-04-30T18:56:09.359Z,17.03
2023-04-30T18:58:36.782Z,16.87
2023-04-30T19:01:04.550Z,17.00
2023-04-30T19:03:33.794Z,16.91
2023-04-30T19:06:03.856Z,16.86
2023-04-30T19:08:31.372Z,16.81
2023-04-30T19:10:58.810Z,16.74
2023-04-30T19:13:26.286Z,16.72
2023-04-30T19:15:54.066Z,16.69
2023-04-30T19:18:21.750Z,16.55
2023-04-30T19:20:57.064Z,16.63
2023-04-30T19:23:25.919Z,16.58
2023-04-30T19:25:53.367Z,16.56
2023-04-30T19:28:20.821Z,16.52
2023-04-30T19:30:48.368Z,16.49
2023-04-30T19:33:15.903Z,16.42
2023-04-30T19:35:43.376Z,16.38
2023-04-30T19:38:10.833Z,16.41
2023-04-30T19:40:39.662Z,16.30
2023-04-30T19:43:07.117Z,16.32
2023-04-30T19:45:34.577Z,16.19
2023-04-30T19:48:02.073Z,16.19
2023-04-30T19:50:29.580Z,16.17
2023-04-30T19:52:57.030Z,16.12
2023-04-30T19:55:24.474Z,16.11
2023-04-30T19:57:53.231Z,16.11
2023-04-30T20:00:20.936Z,15.96
2023-04-30T20:02:48.502Z,16.08
2023-04-30T20:05:16.105Z,16.01
2023-04-30T20:07:43.550Z,16.03
2023-04-30T20:10:11.611Z,15.95
2023-04-30T20:12:39.399Z,15.88
2023-04-30T20:15:09.157Z,15.87
2023-04-30T20:17:36.606Z,15.84
2023-04-30T20:20:05.617Z,15.69
2023-04-30T20:22:33.079Z,15.66
2023-04-30T20:25:02.403Z,15.70
2023-04-30T20:27:29.943Z,15.69
2023-04-30T20:29:57.633Z,15.61
2023-04-30T20:32:26.678Z,15.52
2023-04-30T20:34:54.202Z,15.54
2023-04-30T20:37:21.687Z,15.52
2023-04-30T20:39:49.135Z,15.42
2023-04-30T20:42:16.818Z,15.40
2023-04-30T20:44:44.285Z,15.21
2023-04-30T20:47:14.204Z,15.24
2023-04-30T20:49:43.462Z,15.11
2023-04-30T20:52:12.047Z,15.01
2023-04-30T20:54:39.568Z,14.95
2023-04-30T20:57:07.516Z,14.92
2023-04-30T20:59:35.687Z,14.81
2023-04-30T21:02:04.297Z,14.83
2023-04-30T21:04:32.048Z,14.78
2023-04-30T21:07:00.962Z,14.70
2023-04-30T21:09:28.503Z,14.63
2023-04-30T21:11:56.097Z,14.56
2023-04-30T21:14:23.526Z,14.51
2023-04-30T21:16:51.244Z,14.43
2023-04-30T21:19:18.832Z,14.32
2023-04-30T21:21:46.345Z,14.23
2023-04-30T21:24:15.146Z,14.27
2023-04-30T21:26:42.671Z,14.23
2023-04-30T21:29:10.309Z,14.18
2023-04-30T21:31:38.020Z,14.09
2023-04-30T21:34:05.486Z,14.07
2023-04-30T21:36:32.976Z,14.07
2023-04-30T21:39:00.432Z,13.99
2023-04-30T21:41:30.229Z,13.90
2023-04-30T21:43:58.180Z,13.87
2023-04-30T21:46:25.702Z,13.84
2023-04-30T21:48:53.227Z,13.78
2023-04-30T21:51:20.804Z,13.73
2023-04-30T21:53:48.246Z,13.74
2023-04-30T21:56:16.231Z,13.70
2023-04-30T21:58:45.002Z,13.61
2023-04-30T22:01:13.238Z,13.63
2023-04-30T22:03:42.674Z,13.58
2023-04-30T22:06:10.207Z,13.50
2023-04-30T22:08:37.705Z,13.51
2023-04-30T22:11:05.173Z,13.51
2023-04-30T22:13:32.646Z,13.51
2023-04-30T22:16:01.897Z,13.48
2023-04-30T22:18:29.430Z,13.49
2023-04-30T22:20:56.945Z,13.49
2023-04-30T22:23:24.413Z,13.44
2023-04-30T22:25:51.849Z,13.44
2023-04-30T22:28:20.862Z,13.42
2023-04-30T22:30:48.368Z,13.38
2023-04-30T22:33:17.165Z,13.37
2023-04-30T22:35:44.603Z,13.35
2023-04-30T22:38:12.613Z,13.31
2023-04-30T22:40:40.327Z,13.34
2023-04-30T22:43:07.892Z,13.31
2023-04-30T22:45:38.083Z,13.33
2023-04-30T22:48:06.180Z,13.27
2023-04-30T22:50:35.394Z,13.30
2023-04-30T22:53:03.027Z,13.24
2023-04-30T22:55:31.281Z,13.25
2023-04-30T22:57:59.818Z,13.22
2023-04-30T23:00:27.674Z,13.21
2023-04-30T23:02:55.231Z,13.20
2023-04-30T23:05:22.688Z,13.20
2023-04-30T23:07:52.100Z,13.17
2023-04-30T23:10:19.580Z,13.14
2023-04-30T23:12:47.173Z,13.16
2023-04-30T23:15:14.954Z,13.18
2023-04-30T23:17:42.469Z,13.17
2023-04-30T23:20:10.823Z,13.11
2023-04-30T23:22:38.363Z,13.10
2023-04-30T23:25:07.886Z,13.13
2023-04-30T23:27:35.421Z,13.13
2023-04-30T23:30:03.484Z,13.07
2023-04-30T23:32:31.460Z,13.03
2023-04-30T23:34:59.137Z,13.06
2023-04-30T23:37:27.130Z,13.03
2023-04-30T23:39:55.309Z,13.06
2023-04-30T23:42:24.320Z,13.05
2023-04-30T23:44:51.818Z,12.96
2023-04-30T23:47:19.403Z,12.96
2023-04-30T23:49:46.850Z,12.95
2023-04-30T23:52:14.593Z,12.94
2023-04-30T23:54:42.025Z,12.95
2023-04-30T23:57:10.184Z,12.83
2023-04-30T23:59:39.521Z,12.93
